Flight Track Log - Related Links

Times and Time Zones

All times are in EDT time to prevent confusion due to time zone crossing. See the AIE861 flight status page for this flight to view local times or setup timezone preferences in your user account.

Time Position Orientation Groundspeed Altitude Reporting Facility
EDT Latitude Longitude Course Direction KTS MPH feet Rate Location/Type
Mon 07:26:23 AM 46.9667 -65.5000 270° West 120 138 1,800  Level Moncton Center
Mon 07:27:23 AM 46.9667 -65.5500 270° West 140 161 3,100 1,350 Climbing Moncton Center
Mon 07:28:23 AM 46.9500 -65.6000 244° Southwest 140 161 4,500 1,450 Climbing Moncton Center
Mon 07:29:23 AM 46.9500 -65.6667 270° West 140 161 6,000 1,400 Climbing Moncton Center
Mon 07:30:23 AM 46.9333 -65.7167 244° Southwest 140 161 7,300 1,300 Climbing Moncton Center
Mon 07:31:23 AM 46.9333 -65.7667 270° West 150 173 8,600 1,300 Climbing Moncton Center
Mon 07:32:23 AM 46.9167 -65.8500 254° West 150 173 9,900 1,200 Climbing Moncton Center
Mon 07:33:23 AM 46.9000 -65.8833 234° Southwest 150 173 11,000 1,050 Climbing Moncton Center
Mon 07:34:23 AM 46.9000 -65.9667 270° West 150 173 12,000 900 Climbing Moncton Center
Mon 07:35:23 AM 46.8833 -66.0167 244° Southwest 150 173 12,800 850 Climbing Moncton Center
Mon 07:36:23 AM 46.8833 -66.0667 270° West 150 173 13,700 850 Climbing Moncton Center
Mon 07:37:23 AM 46.8667 -66.1333 250° West 150 173 14,500 850 Climbing Moncton Center
Mon 07:38:23 AM 46.8667 -66.1833 270° West 150 173 15,400 750 Climbing Moncton Center
Mon 07:39:23 AM 46.8500 -66.2500 250° West 150 173 16,000 300 Climbing Moncton Center
Mon 07:40:23 AM 46.8333 -66.3333 254° West 170 196 16,000  Level Moncton Center
Mon 07:41:23 AM 46.8333 -66.4000 270° West 190 219 16,000  Level Moncton Center
Mon 07:42:23 AM 46.8167 -66.4833 254° West 200 230 16,000  Level Moncton Center
Mon 07:43:23 AM 46.8000 -66.5667 254° West 200 230 16,000  Level Moncton Center
Mon 07:44:23 AM 46.7667 -66.6500 240° Southwest 210 242 16,000 50 Level Moncton Center
Mon 07:45:23 AM 46.7500 -66.7167 250° West 210 242 16,100 50 Climbing Moncton Center
Mon 07:46:23 AM 46.7500 -66.8167 270° West 210 242 16,100  Level Moncton Center
Mon 07:47:23 AM 46.7333 -66.8833 250° West 210 242 16,100  Level Moncton Center
Mon 07:48:23 AM 46.7167 -66.9833 256° West 210 242 16,100  Level Moncton Center
Mon 07:49:23 AM 46.7000 -67.0500 250° West 210 242 16,100  Level Moncton Center
Mon 07:50:23 AM 46.6833 -67.1333 254° West 210 242 16,100  Level Moncton Center
Mon 07:51:23 AM 46.6667 -67.2333 256° West 200 230 16,100  Level Moncton Center
Mon 07:52:23 AM 46.6667 -67.3000 270° West 200 230 16,100  Level Moncton Center
Mon 07:53:23 AM 46.6333 -67.3667 234° Southwest 200 230 16,100  Level Moncton Center
Mon 07:54:23 AM 46.6167 -67.4667 256° West 210 242 16,100  Level Moncton Center
Mon 07:55:23 AM 46.6000 -67.5333 250° West 200 230 16,100  Level Moncton Center
Mon 07:56:23 AM 46.5833 -67.6167 254° West 200 230 16,100 -57 Level Moncton Center
Mon 07:57:08 AM 46.5947 -67.6725 287° West 208 239 16,000 -57 Descending Boston Center
Mon 07:58:08 AM 46.5811 -67.7492 256° West 208 239 16,000 50 Level Boston Center
Mon 07:59:08 AM 46.5633 -67.8231 251° West 208 239 16,100 50 Climbing Boston Center
Mon 08:00:08 AM 46.5497 -67.8997 256° West 208 239 16,100  Level Boston Center
Mon 08:01:08 AM 46.5339 -67.9764 253° West 208 239 16,100  Level Boston Center
Mon 08:02:08 AM 46.5181 -68.0531 253° West 208 239 16,100  Level Boston Center
Mon 08:03:08 AM 46.5042 -68.1297 255° West 208 239 16,100  Level Boston Center
Mon 08:04:08 AM 46.4883 -68.2061 253° West 208 239 16,100  Level Boston Center
Mon 08:05:08 AM 46.4719 -68.2797 252° West 208 239 16,100  Level Boston Center
Mon 08:06:08 AM 46.4600 -68.3469 256° West 208 239 16,100  Level Boston Center
Mon 08:07:08 AM 46.4458 -68.4233 255° West 208 239 16,100  Level Boston Center
Mon 08:08:08 AM 46.4297 -68.4997 253° West 208 239 16,100  Level Boston Center
Mon 08:09:08 AM 46.4156 -68.5731 254° West 208 239 16,100  Level Boston Center
Mon 08:10:08 AM 46.4011 -68.6431 253° West 203 234 16,100  Level Boston Center
Mon 08:11:08 AM 46.3847 -68.7194 253° West 203 234 16,100  Level Boston Center
Mon 08:11:23 AM 46.3667 -68.7333 208° Southwest 200 230 16,100  Level Moncton Center
Mon 08:12:08 AM 46.3683 -68.7928 272° West 203 234 16,100  Level Boston Center
Mon 08:13:08 AM 46.3519 -68.8689 253° West 203 234 16,100  Level Boston Center
Mon 08:14:08 AM 46.3375 -68.9422 254° West 203 234 16,100  Level Boston Center
Mon 08:15:08 AM 46.3231 -69.0150 254° West 203 234 16,100  Level Boston Center
Mon 08:16:08 AM 46.3064 -69.0911 252° West 203 234 16,100  Level Boston Center
Mon 08:17:08 AM 46.2919 -69.1672 255° West 198 228 16,100  Level Boston Center
Mon 08:18:08 AM 46.2772 -69.2403 254° West 198 228 16,100  Level Boston Center
Mon 08:19:08 AM 46.2628 -69.3131 254° West 193 222 16,100  Level Boston Center
Mon 08:20:08 AM 46.2458 -69.3889 252° West 193 222 16,100  Level Boston Center
Mon 08:21:08 AM 46.2269 -69.4650 250° West 193 222 16,100  Level Boston Center
Mon 08:22:08 AM 46.2122 -69.5408 254° West 198 228 16,100  Level Boston Center
Mon 08:23:08 AM 46.1953 -69.6136 251° West 198 228 16,100 -50 Level Boston Center
Mon 08:24:08 AM 46.1786 -69.6922 253° West 203 234 16,000 -100 Descending Boston Center
Mon 08:25:08 AM 46.1614 -69.7681 252° West 203 234 15,900 -50 Descending Boston Center
Mon 08:26:08 AM 46.1464 -69.8436 254° West 203 234 15,900  Level Boston Center
Mon 08:27:08 AM 46.1294 -69.9164 251° West 203 234 15,900  Level Boston Center
Mon 08:28:08 AM 46.1122 -69.9947 252° West 203 234 15,900  Level Boston Center
Mon 08:29:08 AM 46.0950 -70.0644 250° West 203 234 15,900  Level Boston Center
Mon 08:30:08 AM 46.0819 -70.1428 257° West 203 234 15,900  Level Boston Center
Mon 08:30:23 AM 46.0667 -70.1667 227° Southwest 200 230 15,900 -113 Level Moncton Center
Mon 08:31:01 AM 46.0500 -70.1833 215° Southwest 190 219 15,800 -61 Descending Montreal Center
Mon 08:32:01 AM 46.0500 -70.2667 270° West 190 219 15,800 50 Level Montreal Center
Mon 08:33:01 AM 46.0333 -70.3333 250° West 190 219 15,900 73 Climbing Montreal Center
Mon 08:33:23 AM 46.0167 -70.4000 250° West 190 219 15,900  Level Moncton Center
Mon 08:34:01 AM 46.0000 -70.4167 215° Southwest 190 219 15,900  Level Montreal Center
Mon 08:35:01 AM 45.9833 -70.4833 250° West 190 219 15,900  Level Montreal Center
Mon 08:36:01 AM 45.9833 -70.5667 270° West 200 230 15,900  Level Montreal Center
Mon 08:37:01 AM 45.9667 -70.6333 250° West 190 219 15,900  Level Montreal Center
Mon 08:38:01 AM 45.9333 -70.7167 240° Southwest 190 219 15,900  Level Montreal Center
Mon 08:39:01 AM 45.9167 -70.7833 250° West 190 219 15,900  Level Montreal Center
Mon 08:40:01 AM 45.9000 -70.8667 254° West 200 230 15,900  Level Montreal Center
Mon 08:41:01 AM 45.9167 -70.9333 290° West 200 230 15,900  Level Montreal Center
Mon 08:42:01 AM 45.9000 -71.0000 250° West 200 230 15,900 50 Level Montreal Center
Mon 08:43:01 AM 45.8833 -71.1000 257° West 200 230 16,000  Climbing Montreal Center
Mon 08:44:01 AM 45.8833 -71.1667 270° West 200 230 15,900 -50 Descending Montreal Center
Mon 08:45:01 AM 45.8667 -71.2667 257° West 200 230 15,900  Level Montreal Center
Mon 08:46:01 AM 45.8833 -71.3500 286° West 200 230 15,900  Level Montreal Center
Mon 08:47:01 AM 45.8667 -71.4167 250° West 210 242 15,900  Level Montreal Center
Mon 08:48:01 AM 45.8500 -71.5167 257° West 200 230 15,900  Level Montreal Center
Mon 08:49:01 AM 45.8500 -71.5833 270° West 200 230 15,900  Level Montreal Center
Mon 08:50:01 AM 45.8333 -71.6667 254° West 210 242 15,900  Level Montreal Center
Mon 08:51:01 AM 45.8333 -71.7500 270° West 210 242 15,900  Level Montreal Center
Mon 08:52:01 AM 45.8333 -71.8333 270° West 210 242 15,900  Level Montreal Center
Mon 08:53:01 AM 45.8167 -71.9333 257° West 210 242 15,900  Level Montreal Center
Mon 08:54:01 AM 45.8000 -72.0000 250° West 210 242 15,900  Level Montreal Center
Mon 08:55:01 AM 45.8000 -72.1000 270° West 210 242 15,900  Level Montreal Center
Mon 08:56:01 AM 45.8000 -72.1667 270° West 220 253 15,900  Level Montreal Center
Mon 08:57:01 AM 45.7833 -72.2667 257° West 220 253 15,900 50 Level Montreal Center
Mon 08:58:01 AM 45.7833 -72.3333 270° West 220 253 16,000 50 Climbing Montreal Center
Mon 08:59:01 AM 45.7667 -72.4333 257° West 220 253 16,000  Level Montreal Center
Mon 09:00:01 AM 45.7500 -72.5000 250° West 220 253 16,000  Level Montreal Center
Mon 09:01:01 AM 45.7500 -72.6000 270° West 220 253 16,000  Level Montreal Center
Mon 09:02:01 AM 45.7500 -72.7000 270° West 220 253 16,000 -150 Level Montreal Center
Mon 09:03:01 AM 45.7333 -72.7667 250° West 220 253 15,700 -1,000 Descending Montreal Center
Mon 09:04:01 AM 45.7333 -72.8667 270° West 240 276 14,000 -1,650 Descending Montreal Center
Mon 09:05:01 AM 45.7167 -72.9667 257° West 240 276 12,400 -1,600 Descending Montreal Center
Mon 09:06:01 AM 45.7000 -73.0667 257° West 230 265 10,800 -1,400 Descending Montreal Center
Mon 09:07:01 AM 45.6833 -73.1333 250° West 220 253 9,600 -1,200 Descending Montreal Center
Mon 09:08:01 AM 45.6667 -73.2333 257° West 210 242 8,400 -1,200 Descending Montreal Center
Mon 09:09:01 AM 45.6667 -73.3000 270° West 200 230 7,200 -1,150 Descending Montreal Center
Mon 09:10:01 AM 45.6500 -73.3833 254° West 200 230 6,100 -1,200 Descending Montreal Center
Mon 09:11:01 AM 45.6500 -73.4500 270° West 200 230 4,800 -1,200 Descending Montreal Center
Mon 09:12:01 AM 45.6167 -73.5167 234° Southwest 210 242 3,700 -900 Descending Montreal Center
Mon 09:13:01 AM 45.5833 -73.6000 240° Southwest 210 242 3,000 -850 Descending Montreal Center
Mon 09:14:01 AM 45.5333 -73.6500 215° Southwest 180 207 2,000 -950 Descending Montreal Center
Mon 09:15:01 AM 45.5000 -73.6667 199° South 150 173 1,100 -750 Descending Montreal Center
Mon 09:16:01 AM 45.4833 -73.7167 245° Southwest 110 127 500 -500 Descending Montreal Center
Mon 09:17:01 AM 45.4667 -73.7167 180° South 60 69 100 -400 Descending Montreal Center

Login

Don't have an account? Register now (free) for customized features, flight alerts, and more!